LFPO 251000Z 19006KT 160V260 CAVOK 28/20 Q1016 NOSIG

ElémentsDécodage
LFPO Station météo située sur l'aérodrome de PARIS Orly
251000Z émis le 25 du mois à 10h00 UTC
19006KT vent du 190°, 06 noeuds
160V260 vent de direction variable entre 160° et 260°
CAVOK Ceiling And Visibility OK
- Visibilité de 10 Km ou plus
- Pas de nuage au-dessous de 1500m ou au-dessous de l'altitude minimale du secteur la plus élevée (si>1500m) et absence de CB
- pas de temps présent significatif
28/20 température 28°C, point de rosée 20°C
 soit une humidité relative de 62%
Q1016 la pression au niveau de la mer (QNH) est de 1016 hPa
NOSIG Pas de changement significatif prévu au cours des deux heures suivant l'heure de l'observation